Latest Weather Observations for Cummins Airport

IDS60801

Issued at 4:21 pm CDT Wednesday 19 December 2018 (issued every 10 minutes, with the page automatically refreshed every 10 minutes)

About weather observations | Map of weather stations | Latest weather observations for SA | Other Formats
Station Details ID: 018217 Name: CUMMINS AERO Lat: -34.25 Lon: 135.71 Height: 60.11 m
Data from the previous 72 hours. | See also: Recent months at Cummins Airport
Date/Time
CDT
Temp
°C
App
Temp
°C
Dew
Point
°C
Rel
Hum
%
Delta-T
°C
Wind Press
QNH
hPa
Press
MSL
hPa
Rain since
9am
mm
Dir  Spd
km/h
Gust
km/h
Spd
kts
Gust
kts
19/04:00pm 31.7 27.6 13.9 34 10.8 S 28 39 15 21 1006.7 1006.5 0.2
19/03:30pm 32.5 29.2 14.1 32 11.3 SSE 24 37 13 20 1006.5 1006.3 0.2
19/03:16pm 33.7 31.4 14.2 30 12.0 SW 19 50 10 27 1006.4 1006.2 0.2
19/03:00pm 32.8 30.6 14.4 33 11.3 WSW 19 35 10 19 1006.4 1006.2 0.2
19/02:30pm 32.9 31.5 13.5 30 11.8 WNW 13 37 7 20 1006.3 1006.1 0.2
19/02:00pm 32.1 29.9 13.3 31 11.3 SSW 17 22 9 12 1006.7 1006.5 0.2
19/01:30pm 32.1 29.5 13.3 31 11.3 SSE 19 28 10 15 1006.9 1006.7 0.2
19/01:00pm 31.0 30.2 12.8 32 10.8 S 9 15 5 8 1007.3 1007.2 0.2
19/12:30pm 31.2 29.6 13.9 35 10.5 SE 15 20 8 11 1007.4 1007.3 0.2
19/12:00pm 29.3 28.6 13.1 37 9.6 NNE 9 20 5 11 1007.6 1007.5 0.2
19/11:30am 28.8 26.4 12.7 37 9.5 ENE 17 22 9 12 1007.9 1007.8 0.2
19/11:00am 29.0 25.7 12.8 36 9.6 E 22 30 12 16 1008.0 1007.9 0.2
19/10:30am 27.9 23.8 13.8 42 8.4 E 28 35 15 19 1007.9 1007.8 0.2
19/10:00am 27.4 23.9 14.4 45 7.8 E 26 37 14 20 1007.9 1007.8 0.2
19/09:30am 26.8 23.3 14.5 46 7.4 ESE 26 35 14 19 1008.0 1007.9 0.2
19/09:00am 25.8 23.4 15.5 53 6.3 ESE 22 28 12 15 1008.0 1007.9 -
19/08:30am 25.1 22.2 15.1 53 6.0 ESE 24 32 13 17 1007.7 1007.6 -
19/08:00am 23.5 20.7 15.3 60 4.9 ESE 24 32 13 17 1007.3 1007.2 -
19/07:30am 23.2 20.6 15.0 60 4.9 ESE 22 32 12 17 1007.1 1006.9 -
19/07:00am 22.6 19.7 15.0 62 4.5 ESE 24 39 13 21 1007.0 1006.8 -
19/06:30am 21.9 20.9 14.5 63 4.4 SSE 13 19 7 10 1007.1 1006.9 -
19/06:00am 21.1 20.1 14.5 66 3.9 ESE 13 20 7 11 1006.7 1006.5 -
19/05:30am 21.3 18.9 14.5 65 4.0 E 20 24 11 13 1006.2 1006.0 -
19/05:00am 20.8 19.5 14.7 68 3.6 E 15 17 8 9 1006.4 1006.2 -
19/04:30am 20.3 19.9 14.2 68 3.6 SE 9 17 5 9 1006.9 1006.7 -
19/04:00am 22.2 22.0 14.6 62 4.5 WSW 9 13 5 7 1007.1 1006.9 -
19/03:30am 22.4 19.3 15.5 65 4.1 WNW 26 41 14 22 1006.4 1006.2 -
19/03:22am 21.7 19.7 15.5 68 3.7 N 20 35 11 19 1006.6 1006.4 -
19/03:12am 22.1 18.1 15.2 65 4.1 ENE 30 48 16 26 1004.6 1004.4 -
19/03:00am 21.9 17.4 15.5 67 3.8 ENE 33 46 18 25 1003.9 1003.7 -
19/02:31am 22.1 17.3 15.5 66 4.0 ENE 35 54 19 29 1003.8 1003.6 -
19/02:30am 22.1 16.9 15.5 66 4.0 ENE 37 54 20 29 1003.8 1003.6 -
19/02:06am 22.2 17.1 15.8 67 3.9 ENE 37 56 20 30 1004.6 1004.4 -
19/02:00am 22.0 16.1 15.8 68 3.7 ENE 41 56 22 30 1004.6 1004.4 -
19/01:31am 22.4 18.1 16.0 67 3.9 ENE 33 52 18 28 1004.9 1004.7 0.2
19/01:30am 22.2 17.9 16.0 68 3.8 ENE 33 48 18 26 1004.9 1004.7 0.2
19/01:01am 22.4 16.9 15.7 66 4.0 E 39 57 21 31 1005.5 1005.3 0.2
19/01:00am 22.4 16.5 15.7 66 4.0 E 41 57 22 31 1005.4 1005.2 0.2
19/12:30am 21.9 16.0 15.7 68 3.7 E 41 61 22 33 1005.4 1005.2 0.2
19/12:00am 22.7 16.3 15.5 64 4.3 E 43 61 23 33 1005.3 1005.1 0.2
 
Date/Time
CDT
Temp
°C
App
Temp
°C
Dew
Point
°C
Rel
Hum
%
Delta-T
°C
Wind Press
QNH
hPa
Press
MSL
hPa
Rain since
9am
mm
Dir  Spd
km/h
Gust
km/h
Spd
kts
Gust
kts
18/11:31pm 22.3 16.7 15.4 65 4.1 E 39 57 21 31 1005.7 1005.5 0.2
18/11:30pm 22.4 16.8 15.5 65 4.1 E 39 54 21 29 1005.7 1005.5 0.2
18/11:00pm 23.1 16.6 15.2 61 4.7 ESE 43 61 23 33 1006.4 1006.2 0.2
18/10:45pm 22.6 17.3 15.4 64 4.3 E 37 48 20 26 1007.3 1007.2 0.2
18/10:30pm 23.2 19.7 14.5 58 5.2 SE 26 41 14 22 1007.8 1007.7 0.2
18/10:00pm 23.9 18.5 14.0 54 5.8 E 35 48 19 26 1006.9 1006.7 0.2
18/09:35pm 23.4 18.4 14.1 56 5.5 E 33 52 18 28 1005.7 1005.5 0.2
18/09:30pm 23.1 18.2 14.4 58 5.2 E 33 48 18 26 1005.9 1005.7 0.2
18/09:08pm 22.7 17.2 14.8 61 4.7 E 37 56 20 30 1006.1 1005.9 0.2
18/09:00pm 22.5 16.7 14.9 62 4.5 E 39 54 21 29 1006.2 1006.0 0.2
18/08:30pm 22.4 17.9 15.3 64 4.3 E 33 54 18 29 1006.8 1006.6 0.2
18/08:22pm 22.4 18.7 15.0 63 4.4 E 28 46 15 25 1007.0 1006.8 0.2
18/08:00pm 22.4 17.9 14.8 62 4.5 E 32 41 17 22 1007.0 1006.8 0.2
18/07:30pm 22.1 17.7 15.2 65 4.1 E 32 44 17 24 1007.3 1007.2 0.2
18/07:00pm 22.1 16.5 15.5 66 4.0 E 39 52 21 28 1007.3 1007.2 0.2
18/06:43pm 21.5 17.2 15.8 70 3.4 E 33 52 18 28 1007.8 1007.7 0.2
18/06:30pm 21.9 18.3 16.2 70 3.5 E 30 41 16 22 1009.0 1008.9 0.0
18/06:00pm 22.6 20.1 16.2 67 3.9 ESE 24 33 13 18 1009.9 1009.8 0.0
18/05:30pm 23.5 21.4 16.1 63 4.5 SE 22 30 12 16 1010.7 1010.6 0.0
18/05:00pm 23.3 20.2 15.6 62 4.6 SE 26 35 14 19 1010.3 1010.2 0.0
18/04:30pm 24.5 23.2 15.7 58 5.3 SE 17 24 9 13 1011.3 1011.1 0.0
18/04:00pm 23.3 22.5 18.0 72 3.3 SE 19 30 10 16 1010.7 1010.6 0.0
18/03:30pm 24.7 23.2 16.4 60 5.1 ESE 19 24 10 13 1011.8 1011.6 0.0
18/03:00pm 25.6 24.3 15.9 55 5.9 ESE 17 22 9 12 1012.0 1011.8 0.0
18/02:30pm 26.7 23.6 15.7 51 6.7 SE 26 35 14 19 1010.4 1010.3 0.0
18/02:00pm 27.5 24.9 15.8 48 7.2 ESE 24 32 13 17 1010.8 1010.7 0.0
18/01:30pm 27.2 25.5 16.2 51 6.8 ESE 20 32 11 17 1011.6 1011.4 0.0
18/01:00pm 26.7 25.6 16.3 53 6.4 E 17 22 9 12 1012.0 1011.8 0.0
18/12:30pm 25.3 24.0 16.7 59 5.3 SE 19 24 10 13 1012.0 1011.8 0.0
18/12:00pm 23.7 22.6 17.4 68 3.9 SE 19 26 10 14 1012.0 1011.8 0.0
18/11:30am 23.1 20.6 17.1 69 3.7 SE 26 35 14 19 1011.3 1011.1 0.0
18/11:00am 22.4 22.6 16.7 70 3.5 ESE 11 20 6 11 1011.9 1011.7 0.0
18/10:30am 22.4 22.2 17.5 74 3.0 SE 15 32 8 17 1011.6 1011.4 0.0
18/10:00am 20.8 19.1 18.0 84 1.7 ESE 24 33 13 18 1011.6 1011.4 0.0
18/09:30am 19.9 18.5 17.9 88 1.2 ESE 22 35 12 19 1011.5 1011.3 0.0
18/09:00am 19.7 17.4 17.5 87 1.4 ESE 26 35 14 19 1010.8 1010.7 0.2
18/08:30am 19.3 16.6 17.6 90 1.0 ESE 28 37 15 20 1010.8 1010.7 0.2
18/08:00am 18.7 16.0 17.5 93 0.7 E 28 35 15 19 1010.8 1010.7 0.2
18/07:30am 18.5 18.2 17.3 93 0.7 ESE 15 24 8 13 1011.4 1011.2 0.0
18/07:00am 18.2 16.9 17.2 94 0.6 SE 20 26 11 14 1011.6 1011.4 0.0
18/06:30am 18.2 18.1 16.9 92 0.8 ESE 13 17 7 9 1011.6 1011.4 0.0
18/06:00am 18.0 16.7 17.2 95 0.5 ESE 20 32 11 17 1010.5 1010.4 0.0
18/05:30am 17.7 16.6 17.2 97 0.3 SE 19 26 10 14 1010.3 1010.2 0.0
18/05:00am 17.6 15.8 17.0 96 0.4 SE 22 32 12 17 1010.2 1010.1 0.0
18/04:30am 17.3 15.1 16.8 97 0.3 SE 24 33 13 18 1009.8 1009.7 0.0
18/04:00am 17.5 15.7 17.0 97 0.3 SE 22 28 12 15 1010.4 1010.3 0.0
18/03:30am 17.3 14.3 16.8 97 0.3 SE 28 35 15 19 1010.2 1010.1 0.0
18/03:00am 17.2 14.9 16.7 97 0.3 SSE 24 33 13 18 1011.0 1010.8 0.0
18/02:30am 17.0 15.7 16.7 98 0.2 SSE 19 26 10 14 1011.5 1011.3 0.0
18/02:00am 17.0 15.4 16.4 96 0.4 SSE 20 30 11 16 1011.1 1010.9 0.0
18/01:30am 17.0 15.8 16.0 94 0.6 S 17 24 9 13 1011.3 1011.1 0.0
18/01:00am 16.7 15.3 14.5 87 1.3 SSW 15 20 8 11 1011.3 1011.1 0.0
18/12:30am 18.2 16.7 14.3 78 2.3 SSE 15 26 8 14 1010.4 1010.3 0.0
18/12:00am 18.0 15.8 14.5 80 2.0 SE 19 24 10 13 1009.8 1009.7 0.0
 
Date/Time
CDT
Temp
°C
App
Temp
°C
Dew
Point
°C
Rel
Hum
%
Delta-T
°C
Wind Press
QNH
hPa
Press
MSL
hPa
Rain since
9am
mm
Dir  Spd
km/h
Gust
km/h
Spd
kts
Gust
kts
17/11:30pm 18.4 16.8 14.9 80 2.0 ESE 17 24 9 13 1009.8 1009.7 0.0
17/11:00pm 18.6 17.1 15.3 81 1.9 E 17 24 9 13 1009.7 1009.6 0.0
17/10:30pm 19.0 16.2 15.3 79 2.2 ENE 24 33 13 18 1009.3 1009.2 0.0
17/10:00pm 19.0 15.5 15.5 80 2.1 E 28 39 15 21 1008.9 1008.8 0.0
17/09:30pm 19.0 15.0 15.3 79 2.2 E 30 43 16 23 1009.2 1009.1 0.0
17/09:00pm 19.1 15.9 15.2 78 2.3 ESE 26 35 14 19 1010.3 1010.2 0.0
17/08:30pm 19.5 17.3 15.0 75 2.6 ESE 20 28 11 15 1011.4 1011.2 0.0
17/08:00pm 20.0 17.9 14.6 71 3.2 ESE 19 30 10 16 1011.4 1011.2 0.0
17/07:30pm 20.7 19.0 14.8 69 3.5 SE 17 26 9 14 1011.4 1011.2 0.0
17/07:00pm 22.0 17.9 14.9 64 4.2 ESE 30 37 16 20 1011.0 1010.8 0.0
17/06:30pm 22.5 19.5 14.9 62 4.5 SE 24 32 13 17 1010.8 1010.7 0.0
17/06:00pm 24.0 21.4 15.0 57 5.4 SE 22 30 12 16 1010.7 1010.6 0.0
17/05:30pm 24.6 21.6 14.7 54 5.9 SE 24 35 13 19 1010.7 1010.6 0.0
17/05:00pm 24.5 20.7 14.6 54 5.9 ESE 28 35 15 19 1010.7 1010.6 0.0
17/04:30pm 24.9 20.9 14.1 51 6.4 ESE 28 35 15 19 1011.2 1011.0 0.0
17/04:00pm 24.8 21.5 14.0 51 6.4 ESE 24 35 13 19 1011.8 1011.6 0.0
17/03:30pm 26.1 23.1 14.9 50 6.8 SE 24 32 13 17 1011.8 1011.6 0.0
17/03:00pm 23.7 21.4 14.1 55 5.7 ESE 19 26 10 14 1012.7 1012.5 0.0
17/02:30pm 23.6 21.2 15.4 60 4.9 ESE 22 30 12 16 1012.6 1012.4 0.0
17/02:00pm 22.1 19.0 15.5 66 4.0 E 26 33 14 18 1012.3 1012.1 0.0
17/01:30pm 21.1 17.6 15.4 70 3.4 ESE 28 37 15 20 1012.4 1012.2 0.0
17/01:00pm 22.3 18.8 15.4 65 4.1 ESE 28 35 15 19 1012.6 1012.4 0.0
17/12:30pm 21.3 17.4 15.6 70 3.4 ESE 30 41 16 22 1012.8 1012.6 0.0
17/12:00pm 19.7 17.1 15.8 78 2.3 ESE 24 32 13 17 1013.4 1013.2 0.0
17/11:30am 20.8 19.3 16.2 75 2.8 SE 19 26 10 14 1014.2 1014.0 0.0
17/11:00am 19.9 18.8 16.3 80 2.2 ESE 17 28 9 15 1013.9 1013.7 0.0
17/10:30am 19.2 17.7 16.4 84 1.7 E 19 26 10 14 1014.0 1013.8 0.0
17/10:00am 18.5 17.1 16.5 88 1.2 E 19 26 10 14 1013.8 1013.6 0.0
17/09:30am 17.9 16.9 16.6 92 0.8 ESE 17 24 9 13 1013.9 1013.7 0.0
17/09:00am 17.3 17.0 17.3 100 0.0 E 15 19 8 10 1013.7 1013.5 0.0
17/08:30am 16.9 15.5 16.9 100 0.0 ESE 20 30 11 16 1012.7 1012.5 0.0
17/08:00am 16.5 14.9 16.5 100 0.0 ESE 20 30 11 16 1012.5 1012.3 0.0
17/07:30am 16.2 15.0 16.2 100 0.0 E 17 26 9 14 1011.5 1011.3 0.0
17/07:00am 15.8 15.3 15.8 100 0.0 E 13 17 7 9 1011.5 1011.3 0.0
17/06:30am 15.5 14.5 15.5 100 0.0 E 15 22 8 12 1010.8 1010.7 0.0
17/06:00am 15.2 13.1 15.2 100 0.0 E 20 30 11 16 1010.2 1010.1 0.0
17/05:30am 15.5 13.7 15.5 100 0.0 E 19 24 10 13 1010.0 1009.9 0.0
17/05:00am 15.3 13.8 15.3 100 0.0 ESE 17 24 9 13 1010.6 1010.5 0.0
17/04:30am 15.4 14.7 15.4 100 0.0 E 13 20 7 11 1010.8 1010.7 0.0
17/04:00am 15.4 14.3 15.4 100 0.0 ESE 15 22 8 12 1011.1 1010.9 0.0
17/03:30am 15.7 14.4 15.7 100 0.0 ESE 17 24 9 13 1010.8 1010.7 0.0
17/03:00am 15.9 14.3 15.9 100 0.0 SE 19 24 10 13 1011.4 1011.2 0.0
17/02:30am 16.0 15.2 16.0 100 0.0 SE 15 19 8 10 1011.6 1011.4 0.0
17/02:00am 16.0 15.2 16.0 100 0.0 SE 15 20 8 11 1011.8 1011.6 0.0
17/01:30am 16.1 15.2 15.8 98 0.2 SE 15 20 8 11 1011.9 1011.7 0.0
17/01:00am 16.3 16.1 15.8 97 0.3 SE 11 15 6 8 1012.3 1012.1 0.0
17/12:30am 16.4 16.3 15.9 97 0.3 SSE 11 15 6 8 1012.7 1012.5 0.0
17/12:00am 16.5 15.7 16.0 97 0.3 SE 15 19 8 10 1012.5 1012.3 0.0
 
Date/Time
CDT
Temp
°C
App
Temp
°C
Dew
Point
°C
Rel
Hum
%
Delta-T
°C
Wind Press
QNH
hPa
Press
MSL
hPa
Rain since
9am
mm
Dir  Spd
km/h
Gust
km/h
Spd
kts
Gust
kts
16/11:30pm 16.5 15.0 16.2 98 0.2 SE 19 24 10 13 1012.1 1011.9 0.0
16/11:00pm 16.5 14.7 16.0 97 0.3 SSE 20 28 11 15 1012.4 1012.2 0.0
16/10:30pm 16.5 15.2 15.7 95 0.5 SSE 17 28 9 15 1012.1 1011.9 0.0
16/10:00pm 16.5 15.1 15.5 94 0.6 SSE 17 24 9 13 1011.9 1011.7 0.0
16/09:30pm 17.2 15.2 15.4 89 1.1 SSE 20 26 11 14 1011.4 1011.2 0.0
16/09:00pm 17.6 15.5 15.2 86 1.4 S 20 26 11 14 1011.0 1010.8 0.0
16/08:30pm 18.5 16.1 15.4 82 1.8 SSW 22 30 12 16 1010.7 1010.6 0.0
16/08:00pm 20.0 17.1 15.2 74 2.8 SSW 24 30 13 16 1010.6 1010.5 0.0
16/07:30pm 21.1 18.7 15.4 70 3.4 SW 22 28 12 15 1010.3 1010.2 0.0
16/07:00pm 22.1 19.7 15.5 66 4.0 SSW 22 32 12 17 1009.8 1009.7 0.0
16/06:30pm 22.3 20.0 15.6 66 4.0 SSW 22 28 12 15 1009.5 1009.4 0.0
16/06:00pm 23.4 22.4 15.7 62 4.7 SSW 15 20 8 11 1009.3 1009.2 0.0
16/05:30pm 24.3 23.8 16.0 60 5.1 SW 13 20 7 11 1009.2 1009.1 0.0
16/05:00pm 23.7 22.7 15.7 61 4.8 S 15 20 8 11 1009.2 1009.1 0.0
16/04:30pm 24.2 22.4 15.4 58 5.3 S 19 28 10 15 1009.1 1009.0 0.0

Other Formats:

Comma delimited format used in spreadsheet applications
http://www.bom.gov.au/fwo/IDS60801/IDS60801.95663.axf

JavaScript Object Notation format (JSON) in row-major order
http://www.bom.gov.au/fwo/IDS60801/IDS60801.95663.json